• Join FlightAware (Why Join?)
  • Login
  • US Flag 
08:57AM EST


 

Airport Tracker/Info


-or-


 

Live Flight TrackerFlight Track Log ✈ FDX1611 ✈ 23-Apr-2012 ✈ KDTW - KIND

Flight Track Log - Related Links

Times and Time Zones

All times are in EDT time to prevent confusion due to time zone crossing. See the FDX1611 flight status page for this flight to view local times or setup timezone preferences in your user account.

Time Position Orientation Groundspeed Altitude Reporting Facility
EDT Latitude Longitude Course Direction KTS MPH feet Rate Location/Type
11:09PM 42.2200 -83.3703 233° Southwest 284 327 1,200  Level Cleveland Center
11:12PM 42.1414 -83.5097 206° Southwest 262 302 12,600 3,660 Climbing Cleveland Center
11:13PM 42.0269 -83.5853 207° Southwest 367 422 15,600 3,780 Climbing Cleveland Center
11:14PM 41.9103 -83.6636 206° Southwest 428 493 20,200 4,140 Climbing Cleveland Center
11:15PM 41.7956 -83.7389 207° Southwest 464 534 23,900 1,860 Climbing Cleveland Center
11:16PM 41.6831 -83.8142 206° Southwest 464 534 24,000  Climbing Cleveland Center
11:17PM 41.5683 -83.8889 205° Southwest 459 528 24,000  Level Cleveland Center
11:20PM 41.2856 -84.0678 206° Southwest 449 517 24,000  Level Indianapolis Center
11:21PM 41.1728 -84.1414 207° Southwest 449 517 24,000  Level Indianapolis Center
11:22PM 41.0786 -84.2039 215° Southwest 449 517 24,000  Level Indianapolis Center
11:23PM 40.9656 -84.3100 218° Southwest 454 522 24,000  Level Indianapolis Center
11:24PM 40.8669 -84.4106 218° Southwest 459 528 24,000  Level Indianapolis Center
11:25PM 40.7661 -84.5161 218° Southwest 465 535 24,000  Level Indianapolis Center
11:26PM 40.6653 -84.6186 217° Southwest 465 535 24,000  Level Indianapolis Center
11:27PM 40.5642 -84.7181 218° Southwest 465 535 24,000  Level Indianapolis Center
11:28PM 40.4653 -84.8200 216° Southwest 465 535 24,000 -300 Level Indianapolis Center
11:29PM 40.3683 -84.9136 217° Southwest 455 524 23,400 -1,440 Descending Indianapolis Center
11:30PM 40.2714 -85.0097 240° Southwest 441 507 21,200 -1,680 Descending Indianapolis Center
11:31PM 40.2178 -85.1336 275° West 405 466 20,100 -1,620 Descending Indianapolis Center
11:32PM 40.2261 -85.2672 273° West 372 428 18,000 -2,160 Descending Indianapolis Center
11:33PM 40.2325 -85.4086 242° Southwest 365 420 15,800 -2,160 Descending Indianapolis Center
11:34PM 40.1825 -85.5297 240° Southwest 360 414 13,700 -2,100 Descending Indianapolis Center
11:35PM 40.1328 -85.6422 233° Southwest 365 420 11,700 -1,740 Descending Indianapolis Center
11:35PM 40.1000 -85.7000 229° Southwest 350 403 11,100 -480 Descending Indianapolis TRACON
11:36PM 40.0333 -85.8000 224° Southwest 358 412 11,000 -180 Descending Indianapolis TRACON
11:37PM 39.9667 -85.8833 224° Southwest 355 409 10,800 -540 Descending Indianapolis TRACON
11:38PM 39.9000 -85.9667 218° Southwest 312 359 9,900 -1,140 Descending Indianapolis TRACON
11:39PM 39.8333 -86.0333 218° Southwest 296 341 8,500 -1,140 Descending Indianapolis TRACON
11:40PM 39.7667 -86.1000 218° Southwest 288 331 7,700 -780 Descending Indianapolis TRACON
11:41PM 39.7000 -86.1667 226° Southwest 282 325 7,000 -1,020 Descending Indianapolis TRACON
11:42PM 39.6500 -86.2333 218° Southwest 277 319 5,700 -1,020 Descending Indianapolis TRACON
11:43PM 39.6000 -86.2833 218° Southwest 249 287 5,000 -900 Descending Indianapolis TRACON
11:44PM 39.5500 -86.3333 247° West 231 266 4,100 -1,080 Descending Indianapolis TRACON
11:45PM 39.5333 -86.3833 311° West 194 223 3,000 -600 Descending Indianapolis TRACON
11:46PM 39.5667 -86.4333 21° North 153 176 3,000  Level Indianapolis TRACON
11:47PM 39.6000 -86.4167 38° Northeast 149 171 3,000 -240 Level Indianapolis TRACON
11:48PM 39.6333 -86.3833 38° Northeast 142 163 2,600 -600 Descending Indianapolis TRACON
11:49PM 39.6667 -86.3500 57° Northeast 140 161 1,900 -780 Descending Indianapolis TRACON
11:50PM 39.6833 -86.3167 57° Northeast 142 163 1,100 -840 Descending Indianapolis TRACON